sensor_id;sensor_type;location;lat;lon;timestamp;pressure;altitude;pressure_sealevel;temperature;humidity
5877;BME280;2964;42.144;24.730;2023-07-09T00:00:13;147163.78;;;22.57;68.49
5877;BME280;2964;42.144;24.730;2023-07-09T00:02:40;147246.19;;;22.90;68.83
5877;BME280;2964;42.144;24.730;2023-07-09T00:05:11;147234.78;;;22.86;69.55
5877;BME280;2964;42.144;24.730;2023-07-09T00:07:38;147236.06;;;22.86;69.35
5877;BME280;2964;42.144;24.730;2023-07-09T00:10:09;147195.47;;;22.70;69.71
5877;BME280;2964;42.144;24.730;2023-07-09T00:12:41;147244.94;;;22.90;69.46
5877;BME280;2964;42.144;24.730;2023-07-09T00:15:09;147262.69;;;22.97;68.97
5877;BME280;2964;42.144;24.730;2023-07-09T00:17:36;147137.19;;;22.46;69.37
5877;BME280;2964;42.144;24.730;2023-07-09T00:20:07;147116.94;;;22.38;70.36
5877;BME280;2964;42.144;24.730;2023-07-09T00:22:38;147118.19;;;22.39;70.49
5877;BME280;2964;42.144;24.730;2023-07-09T00:25:07;147133.41;;;22.45;70.17
5877;BME280;2964;42.144;24.730;2023-07-09T00:27:34;147118.19;;;22.39;69.81
5877;BME280;2964;42.144;24.730;2023-07-09T00:30:02;147116.94;;;22.38;70.63
5877;BME280;2964;42.144;24.730;2023-07-09T00:32:29;147149.88;;;22.51;69.77
5877;BME280;2964;42.144;24.730;2023-07-09T00:34:55;147177.75;;;22.63;69.09
5877;BME280;2964;42.144;24.730;2023-07-09T00:37:24;147204.34;;;22.73;68.34
5877;BME280;2964;42.144;24.730;2023-07-09T00:39:51;147181.53;;;22.64;68.17
5877;BME280;2964;42.144;24.730;2023-07-09T00:42:21;147163.78;;;22.57;68.46
5877;BME280;2964;42.144;24.730;2023-07-09T00:44:51;147124.53;;;22.41;68.54
5877;BME280;2964;42.144;24.730;2023-07-09T00:47:22;147143.53;;;22.49;68.84
5877;BME280;2964;42.144;24.730;2023-07-09T00:49:59;147053.53;;;22.12;68.08
5877;BME280;2964;42.144;24.730;2023-07-09T00:52:33;147147.34;;;22.50;67.68
5877;BME280;2964;42.144;24.730;2023-07-09T00:55:05;147152.41;;;22.52;67.15
5877;BME280;2964;42.144;24.730;2023-07-09T00:57:35;147194.22;;;22.69;66.66
5877;BME280;2964;42.144;24.730;2023-07-09T01:00:07;147172.66;;;22.61;66.32
5877;BME280;2964;42.144;24.730;2023-07-09T01:02:39;147228.44;;;22.83;65.65
5877;BME280;2964;42.144;24.730;2023-07-09T01:05:09;147213.22;;;22.77;65.75
5877;BME280;2964;42.144;24.730;2023-07-09T01:07:37;147233.53;;;22.85;65.47
5877;BME280;2964;42.144;24.730;2023-07-09T01:10:04;147232.25;;;22.85;64.93
5877;BME280;2964;42.144;24.730;2023-07-09T01:12:31;147160.00;;;22.55;66.14
5877;BME280;2964;42.144;24.730;2023-07-09T01:14:58;147139.72;;;22.47;66.91
5877;BME280;2964;42.144;24.730;2023-07-09T01:17:27;147099.19;;;22.31;66.62
5877;BME280;2964;42.144;24.730;2023-07-09T01:19:56;147099.19;;;22.31;66.44
5877;BME280;2964;42.144;24.730;2023-07-09T01:22:24;147085.19;;;22.25;66.63
5877;BME280;2964;42.144;24.730;2023-07-09T01:24:57;147101.72;;;22.32;67.42
5877;BME280;2964;42.144;24.730;2023-07-09T01:27:29;147085.19;;;22.25;66.84
5877;BME280;2964;42.144;24.730;2023-07-09T01:29:57;147105.50;;;22.33;66.71
5877;BME280;2964;42.144;24.730;2023-07-09T01:32:24;147127.06;;;22.42;66.17
5877;BME280;2964;42.144;24.730;2023-07-09T01:34:53;147071.25;;;22.20;66.50
5877;BME280;2964;42.144;24.730;2023-07-09T01:37:23;147039.59;;;22.07;66.87
5877;BME280;2964;42.144;24.730;2023-07-09T01:39:53;147087.81;;;22.26;66.96
5877;BME280;2964;42.144;24.730;2023-07-09T01:42:22;147023.09;;;22.00;67.21
5877;BME280;2964;42.144;24.730;2023-07-09T01:44:51;147043.41;;;22.08;67.01
5877;BME280;2964;42.144;24.730;2023-07-09T01:47:19;147115.66;;;22.38;66.09
5877;BME280;2964;42.144;24.730;2023-07-09T01:49:46;147081.38;;;22.24;66.31
5877;BME280;2964;42.144;24.730;2023-07-09T01:52:15;147052.25;;;22.12;66.48
5877;BME280;2964;42.144;24.730;2023-07-09T01:54:44;147062.41;;;22.16;66.71
5877;BME280;2964;42.144;24.730;2023-07-09T01:57:18;146948.38;;;21.70;66.92
5877;BME280;2964;42.144;24.730;2023-07-09T01:59:49;147015.53;;;21.97;66.66
5877;BME280;2964;42.144;24.730;2023-07-09T02:02:16;147075.06;;;22.21;66.23
5877;BME280;2964;42.144;24.730;2023-07-09T02:04:49;147029.47;;;22.03;65.87
5877;BME280;2964;42.144;24.730;2023-07-09T02:07:17;147034.53;;;22.05;66.16
5877;BME280;2964;42.144;24.730;2023-07-09T02:09:43;147016.78;;;21.97;66.54
5877;BME280;2964;42.144;24.730;2023-07-09T02:12:11;147082.66;;;22.24;65.61
5877;BME280;2964;42.144;24.730;2023-07-09T02:14:40;147091.56;;;22.28;65.93
5877;BME280;2964;42.144;24.730;2023-07-09T02:17:07;147035.78;;;22.05;65.53
5877;BME280;2964;42.144;24.730;2023-07-09T02:19:34;147064.94;;;22.17;65.63
5877;BME280;2964;42.144;24.730;2023-07-09T02:22:02;147067.44;;;22.18;65.22
5877;BME280;2964;42.144;24.730;2023-07-09T02:24:29;147083.94;;;22.25;65.65
5877;BME280;2964;42.144;24.730;2023-07-09T02:26:55;147073.81;;;22.21;65.08
5877;BME280;2964;42.144;24.730;2023-07-09T02:29:22;147086.50;;;22.26;64.69
5877;BME280;2964;42.144;24.730;2023-07-09T02:31:52;147090.31;;;22.27;64.37
5877;BME280;2964;42.144;24.730;2023-07-09T02:34:19;147066.19;;;22.17;64.78
5877;BME280;2964;42.144;24.730;2023-07-09T02:36:46;147033.28;;;22.04;65.25
5877;BME280;2964;42.144;24.730;2023-07-09T02:39:13;147038.34;;;22.06;64.63
5877;BME280;2964;42.144;24.730;2023-07-09T02:41:40;147035.78;;;22.05;64.71
5877;BME280;2964;42.144;24.730;2023-07-09T02:44:08;147040.84;;;22.07;63.84
5877;BME280;2964;42.144;24.730;2023-07-09T02:46:35;147029.47;;;22.03;64.38
5877;BME280;2964;42.144;24.730;2023-07-09T02:49:05;146841.97;;;21.27;64.90
5877;BME280;2964;42.144;24.730;2023-07-09T02:51:32;146990.19;;;21.87;65.34
5877;BME280;2964;42.144;24.730;2023-07-09T02:54:01;146985.13;;;21.85;65.17
5877;BME280;2964;42.144;24.730;2023-07-09T02:56:28;146995.25;;;21.89;65.05
5877;BME280;2964;42.144;24.730;2023-07-09T02:58:55;146992.72;;;21.88;65.65
5877;BME280;2964;42.144;24.730;2023-07-09T03:01:22;147015.53;;;21.97;65.22
5877;BME280;2964;42.144;24.730;2023-07-09T03:03:50;146997.78;;;21.90;65.42
5877;BME280;2964;42.144;24.730;2023-07-09T03:06:19;146959.75;;;21.74;65.56
5877;BME280;2964;42.144;24.730;2023-07-09T03:08:46;147004.09;;;21.92;65.27
5877;BME280;2964;42.144;24.730;2023-07-09T03:11:14;146975.00;;;21.81;65.77
5877;BME280;2964;42.144;24.730;2023-07-09T03:13:41;147011.72;;;21.95;65.84
5877;BME280;2964;42.144;24.730;2023-07-09T03:16:08;147038.34;;;22.06;64.63
5877;BME280;2964;42.144;24.730;2023-07-09T03:18:35;146976.25;;;21.81;65.28
5877;BME280;2964;42.144;24.730;2023-07-09T03:21:02;146836.88;;;21.25;65.31
5877;BME280;2964;42.144;24.730;2023-07-09T03:23:30;146996.53;;;21.89;65.62
5877;BME280;2964;42.144;24.730;2023-07-09T03:25:57;146985.13;;;21.85;65.38
5877;BME280;2964;42.144;24.730;2023-07-09T03:28:25;146996.53;;;21.89;65.77
5877;BME280;2964;42.144;24.730;2023-07-09T03:30:54;146993.97;;;21.88;65.90
5877;BME280;2964;42.144;24.730;2023-07-09T03:33:21;147026.91;;;22.02;65.36
5877;BME280;2964;42.144;24.730;2023-07-09T03:35:48;146971.19;;;21.79;64.68
5877;BME280;2964;42.144;24.730;2023-07-09T03:38:15;147007.91;;;21.94;65.62
5877;BME280;2964;42.144;24.730;2023-07-09T03:40:43;146961.06;;;21.75;66.00
5877;BME280;2964;42.144;24.730;2023-07-09T03:43:10;147007.91;;;21.94;65.66
5877;BME280;2964;42.144;24.730;2023-07-09T03:45:37;146967.38;;;21.77;65.85
5877;BME280;2964;42.144;24.730;2023-07-09T03:48:05;147037.03;;;22.06;65.63
5877;BME280;2964;42.144;24.730;2023-07-09T03:50:32;146987.66;;;21.86;66.30
5877;BME280;2964;42.144;24.730;2023-07-09T03:52:58;146957.25;;;21.73;66.24
5877;BME280;2964;42.144;24.730;2023-07-09T03:55:25;146954.69;;;21.72;66.07
5877;BME280;2964;42.144;24.730;2023-07-09T03:57:53;147033.28;;;22.04;65.81
5877;BME280;2964;42.144;24.730;2023-07-09T04:00:20;147002.84;;;21.92;64.94
5877;BME280;2964;42.144;24.730;2023-07-09T04:02:47;147035.78;;;22.05;64.96
5877;BME280;2964;42.144;24.730;2023-07-09T04:05:14;147029.47;;;22.03;65.56
5877;BME280;2964;42.144;24.730;2023-07-09T04:07:41;147105.50;;;22.33;64.94
5877;BME280;2964;42.144;24.730;2023-07-09T04:10:07;147141.00;;;22.48;64.70
5877;BME280;2964;42.144;24.730;2023-07-09T04:12:34;147149.88;;;22.51;64.56
5877;BME280;2964;42.144;24.730;2023-07-09T04:15:04;147075.06;;;22.21;63.79
5877;BME280;2964;42.144;24.730;2023-07-09T04:17:31;147125.78;;;22.42;64.18
5877;BME280;2964;42.144;24.730;2023-07-09T04:19:58;147142.28;;;22.48;64.14
5877;BME280;2964;42.144;24.730;2023-07-09T04:22:25;147147.34;;;22.50;63.17
5877;BME280;2964;42.144;24.730;2023-07-09T04:24:51;147444.06;;;23.70;61.77
5877;BME280;2964;42.144;24.730;2023-07-09T04:27:18;147796.88;;;25.13;56.92
5877;BME280;2964;42.144;24.730;2023-07-09T04:29:45;148067.47;;;26.23;51.73
5877;BME280;2964;42.144;24.730;2023-07-09T04:32:15;148162.81;;;26.61;49.74
5877;BME280;2964;42.144;24.730;2023-07-09T04:34:41;148362.44;;;27.42;50.74
5877;BME280;2964;42.144;24.730;2023-07-09T04:37:09;148641.06;;;28.54;47.55
5877;BME280;2964;42.144;24.730;2023-07-09T04:39:37;148873.97;;;29.48;44.81
5877;BME280;2964;42.144;24.730;2023-07-09T04:42:04;148926.16;;;29.69;45.41
5877;BME280;2964;42.144;24.730;2023-07-09T04:44:31;149001.34;;;29.99;43.84
5877;BME280;2964;42.144;24.730;2023-07-09T04:46:58;149132.56;;;30.52;42.41
5877;BME280;2964;42.144;24.730;2023-07-09T04:49:26;149152.97;;;30.60;43.82
5877;BME280;2964;42.144;24.730;2023-07-09T04:51:53;149012.78;;;30.04;40.23
5877;BME280;2964;42.144;24.730;2023-07-09T04:54:21;148923.63;;;29.68;43.22
5877;BME280;2964;42.144;24.730;2023-07-09T04:56:48;149147.88;;;30.58;40.14
5877;BME280;2964;42.144;24.730;2023-07-09T04:59:15;149367.06;;;31.47;40.53
5877;BME280;2964;42.144;24.730;2023-07-09T05:01:42;149432.13;;;31.73;37.73
5877;BME280;2964;42.144;24.730;2023-07-09T05:04:08;149242.16;;;30.96;38.04
5877;BME280;2964;42.144;24.730;2023-07-09T05:06:36;149094.34;;;30.37;39.19
5877;BME280;2964;42.144;24.730;2023-07-09T05:09:03;149254.91;;;31.02;38.22
5877;BME280;2964;42.144;24.730;2023-07-09T05:11:33;149123.63;;;30.49;38.98
5877;BME280;2964;42.144;24.730;2023-07-09T05:14:00;149404.09;;;31.62;37.34
5877;BME280;2964;42.144;24.730;2023-07-09T05:16:26;149349.22;;;31.40;39.50
5877;BME280;2964;42.144;24.730;2023-07-09T05:18:53;149471.59;;;31.89;37.73
5877;BME280;2964;42.144;24.730;2023-07-09T05:21:20;149694.88;;;32.79;37.21
5877;BME280;2964;42.144;24.730;2023-07-09T05:23:48;149802.09;;;33.22;34.84
5877;BME280;2964;42.144;24.730;2023-07-09T05:26:15;149842.88;;;33.38;33.53
5877;BME280;2964;42.144;24.730;2023-07-09T05:28:41;149872.25;;;33.50;34.53
5877;BME280;2964;42.144;24.730;2023-07-09T05:31:08;149976.94;;;33.92;32.45
5877;BME280;2964;42.144;24.730;2023-07-09T05:33:35;150112.28;;;34.47;31.27
5877;BME280;2964;42.144;24.730;2023-07-09T05:36:02;149948.88;;;33.81;32.81
5877;BME280;2964;42.144;24.730;2023-07-09T05:38:28;149915.66;;;33.68;33.69
5877;BME280;2964;42.144;24.730;2023-07-09T05:41:01;150119.94;;;34.50;32.03
5877;BME280;2964;42.144;24.730;2023-07-09T05:43:28;150194.03;;;34.79;31.84
5877;BME280;2964;42.144;24.730;2023-07-09T05:45:55;150435.56;;;35.77;30.88
5877;BME280;2964;42.144;24.730;2023-07-09T05:48:22;150319.22;;;35.30;30.79
5877;BME280;2964;42.144;24.730;2023-07-09T05:50:53;149805.88;;;33.23;32.29
5877;BME280;2964;42.144;24.730;2023-07-09T05:53:20;150135.25;;;34.56;31.78
5877;BME280;2964;42.144;24.730;2023-07-09T05:55:46;150261.72;;;35.07;30.03
5877;BME280;2964;42.144;24.730;2023-07-09T05:58:14;150301.34;;;35.23;30.11
5877;BME280;2964;42.144;24.730;2023-07-09T06:00:41;150178.75;;;34.73;31.36
5877;BME280;2964;42.144;24.730;2023-07-09T06:03:08;150254.06;;;35.04;31.15
5877;BME280;2964;42.144;24.730;2023-07-09T06:05:34;149911.81;;;33.66;30.75
5877;BME280;2964;42.144;24.730;2023-07-09T06:08:01;150260.41;;;35.06;29.90
5877;BME280;2964;42.144;24.730;2023-07-09T06:10:28;150357.59;;;35.45;30.53
5877;BME280;2964;42.144;24.730;2023-07-09T06:12:55;150760.22;;;37.07;28.01
5877;BME280;2964;42.144;24.730;2023-07-09T06:15:25;150583.81;;;36.36;28.14
5877;BME280;2964;42.144;24.730;2023-07-09T06:17:52;150677.13;;;36.74;28.91
5877;BME280;2964;42.144;24.730;2023-07-09T06:20:18;150867.72;;;37.50;26.59
5877;BME280;2964;42.144;24.730;2023-07-09T06:22:45;150725.72;;;36.93;27.63
5877;BME280;2964;42.144;24.730;2023-07-09T06:25:12;150332.00;;;35.35;27.90
5877;BME280;2964;42.144;24.730;2023-07-09T06:27:39;150119.94;;;34.50;32.57
5877;BME280;2964;42.144;24.730;2023-07-09T06:30:06;150090.56;;;34.38;31.77
5877;BME280;2964;42.144;24.730;2023-07-09T06:32:35;150260.41;;;35.06;31.98
5877;BME280;2964;42.144;24.730;2023-07-09T06:35:02;149878.59;;;33.53;30.99
5877;BME280;2964;42.144;24.730;2023-07-09T06:37:29;150321.81;;;35.31;29.83
5877;BME280;2964;42.144;24.730;2023-07-09T06:39:55;150317.97;;;35.29;29.98
5877;BME280;2964;42.144;24.730;2023-07-09T06:42:22;150720.63;;;36.91;27.83
5877;BME280;2964;42.144;24.730;2023-07-09T06:44:49;150590.19;;;36.39;27.36
5877;BME280;2964;42.144;24.730;2023-07-09T06:47:15;150218.28;;;34.89;29.74
5877;BME280;2964;42.144;24.730;2023-07-09T06:49:43;150452.13;;;35.83;29.34
5877;BME280;2964;42.144;24.730;2023-07-09T06:52:10;150700.16;;;36.83;28.71
5877;BME280;2964;42.144;24.730;2023-07-09T06:54:36;150908.69;;;37.66;27.30
5877;BME280;2964;42.144;24.730;2023-07-09T06:57:04;151409.09;;;39.67;23.37
5877;BME280;2964;42.144;24.730;2023-07-09T06:59:31;151491.09;;;40.00;23.42
5877;BME280;2964;42.144;24.730;2023-07-09T07:01:57;150779.44;;;37.15;25.18
5877;BME280;2964;42.144;24.730;2023-07-09T07:04:25;150518.59;;;36.10;28.48
5877;BME280;2964;42.144;24.730;2023-07-09T07:06:53;151078.84;;;38.35;24.74
5877;BME280;2964;42.144;24.730;2023-07-09T07:09:22;151637.13;;;40.59;23.98
5877;BME280;2964;42.144;24.730;2023-07-09T07:11:49;151442.41;;;39.81;23.28
5877;BME280;2964;42.144;24.730;2023-07-09T07:14:16;151043.00;;;38.20;25.21
5877;BME280;2964;42.144;24.730;2023-07-09T07:16:42;151589.75;;;40.40;23.23
5877;BME280;2964;42.144;24.730;2023-07-09T07:19:09;151625.59;;;40.54;22.01
5877;BME280;2964;42.144;24.730;2023-07-09T07:21:36;151958.84;;;41.88;21.97
5877;BME280;2964;42.144;24.730;2023-07-09T07:24:04;151477.00;;;39.94;23.63
5877;BME280;2964;42.144;24.730;2023-07-09T07:26:31;151673.00;;;40.73;21.97
5877;BME280;2964;42.144;24.730;2023-07-09T07:28:58;152388.47;;;43.60;19.50
5877;BME280;2964;42.144;24.730;2023-07-09T07:31:25;152175.53;;;42.74;19.73
5877;BME280;2964;42.144;24.730;2023-07-09T07:33:51;152030.63;;;42.16;20.41
5877;BME280;2964;42.144;24.730;2023-07-09T07:36:18;151144.13;;;38.61;24.27
5877;BME280;2964;42.144;24.730;2023-07-09T07:38:45;151186.34;;;38.78;24.94
5877;BME280;2964;42.144;24.730;2023-07-09T07:41:13;151491.09;;;40.00;23.84
5877;BME280;2964;42.144;24.730;2023-07-09T07:43:39;151421.91;;;39.72;25.22
5877;BME280;2964;42.144;24.730;2023-07-09T07:46:06;151952.41;;;41.85;21.20
5877;BME280;2964;42.144;24.730;2023-07-09T07:48:33;151273.41;;;39.13;23.05
5877;BME280;2964;42.144;24.730;2023-07-09T07:51:00;151678.13;;;40.75;21.79
5877;BME280;2964;42.144;24.730;2023-07-09T07:53:28;151753.72;;;41.05;21.63
5877;BME280;2964;42.144;24.730;2023-07-09T07:55:55;152352.56;;;43.45;20.01
5877;BME280;2964;42.144;24.730;2023-07-09T07:58:24;152224.28;;;42.94;19.34
5877;BME280;2964;42.144;24.730;2023-07-09T08:00:54;152274.28;;;43.14;18.92
5877;BME280;2964;42.144;24.730;2023-07-09T08:03:22;152239.69;;;43.00;19.94
5877;BME280;2964;42.144;24.730;2023-07-09T08:05:49;151916.56;;;41.71;20.76
5877;BME280;2964;42.144;24.730;2023-07-09T08:08:16;152065.25;;;42.30;19.79
5877;BME280;2964;42.144;24.730;2023-07-09T08:10:42;152040.91;;;42.20;19.98
5877;BME280;2964;42.144;24.730;2023-07-09T08:13:09;152412.81;;;43.69;18.37
5877;BME280;2964;42.144;24.730;2023-07-09T08:15:37;152321.81;;;43.33;18.55
5877;BME280;2964;42.144;24.730;2023-07-09T08:18:04;152718.38;;;44.92;17.68
5877;BME280;2964;42.144;24.730;2023-07-09T08:20:30;152234.56;;;42.98;18.56
5877;BME280;2964;42.144;24.730;2023-07-09T08:22:58;151970.34;;;41.92;19.25
5877;BME280;2964;42.144;24.730;2023-07-09T08:25:25;152121.69;;;42.53;18.25
5877;BME280;2964;42.144;24.730;2023-07-09T08:27:51;151946.00;;;41.82;20.42
5877;BME280;2964;42.144;24.730;2023-07-09T08:30:18;151996.00;;;42.02;19.29
5877;BME280;2964;42.144;24.730;2023-07-09T08:32:46;151867.78;;;41.51;19.66
5877;BME280;2964;42.144;24.730;2023-07-09T08:35:13;152140.91;;;42.60;18.92
5877;BME280;2964;42.144;24.730;2023-07-09T08:37:41;152338.44;;;43.40;18.22
5877;BME280;2964;42.144;24.730;2023-07-09T08:40:12;152126.81;;;42.55;19.30
5877;BME280;2964;42.144;24.730;2023-07-09T08:42:42;152411.56;;;43.69;18.65
5877;BME280;2964;42.144;24.730;2023-07-09T08:45:23;151928.06;;;41.75;19.23
5877;BME280;2964;42.144;24.730;2023-07-09T08:48:00;151570.47;;;40.32;20.45
5877;BME280;2964;42.144;24.730;2023-07-09T08:50:35;152098.56;;;42.43;18.94
5877;BME280;2964;42.144;24.730;2023-07-09T08:53:04;152287.13;;;43.19;17.59
5877;BME280;2964;42.144;24.730;2023-07-09T08:55:32;152480.88;;;43.97;17.86
5877;BME280;2964;42.144;24.730;2023-07-09T08:58:11;152719.66;;;44.92;16.81
5877;BME280;2964;42.144;24.730;2023-07-09T09:00:43;152070.38;;;42.32;19.14
5877;BME280;2964;42.144;24.730;2023-07-09T09:03:19;151834.50;;;41.38;19.67
5877;BME280;2964;42.144;24.730;2023-07-09T09:05:49;151708.88;;;40.87;19.56
5877;BME280;2964;42.144;24.730;2023-07-09T09:08:28;151962.69;;;41.89;18.93
5877;BME280;2964;42.144;24.730;2023-07-09T09:11:01;151871.66;;;41.53;19.47
5877;BME280;2964;42.144;24.730;2023-07-09T09:13:32;151843.47;;;41.41;20.42
5877;BME280;2964;42.144;24.730;2023-07-09T09:16:04;151448.81;;;39.83;20.32
5877;BME280;2964;42.144;24.730;2023-07-09T09:18:40;152085.72;;;42.38;18.51
5877;BME280;2964;42.144;24.730;2023-07-09T09:21:14;152134.50;;;42.58;18.26
5877;BME280;2964;42.144;24.730;2023-07-09T09:23:45;152681.06;;;44.77;17.43
5877;BME280;2964;42.144;24.730;2023-07-09T09:26:18;152338.44;;;43.40;18.79
5877;BME280;2964;42.144;24.730;2023-07-09T09:28:45;152598.94;;;44.44;17.82
5877;BME280;2964;42.144;24.730;2023-07-09T09:31:12;152332.06;;;43.37;17.57
5877;BME280;2964;42.144;24.730;2023-07-09T09:33:44;151985.75;;;41.98;19.65
5877;BME280;2964;42.144;24.730;2023-07-09T09:36:15;152812.03;;;45.29;17.66
5877;BME280;2964;42.144;24.730;2023-07-09T09:38:43;151919.09;;;41.72;18.64
5877;BME280;2964;42.144;24.730;2023-07-09T09:41:13;152392.31;;;43.61;18.59
5877;BME280;2964;42.144;24.730;2023-07-09T09:43:52;152493.69;;;44.02;16.79
5877;BME280;2964;42.144;24.730;2023-07-09T09:46:21;152402.56;;;43.65;17.02
5877;BME280;2964;42.144;24.730;2023-07-09T09:48:48;152174.28;;;42.74;17.63
5877;BME280;2964;42.144;24.730;2023-07-09T09:51:16;152131.94;;;42.57;18.05
5877;BME280;2964;42.144;24.730;2023-07-09T09:53:47;152316.63;;;43.31;16.51
5877;BME280;2964;42.144;24.730;2023-07-09T09:56:26;152324.34;;;43.34;15.93
5877;BME280;2964;42.144;24.730;2023-07-09T09:58:55;151930.66;;;41.76;17.18
5877;BME280;2964;42.144;24.730;2023-07-09T10:01:27;151993.41;;;42.01;17.81
5877;BME280;2964;42.144;24.730;2023-07-09T10:03:56;152505.22;;;44.06;16.69
5877;BME280;2964;42.144;24.730;2023-07-09T10:06:31;152311.47;;;43.29;17.45
5877;BME280;2964;42.144;24.730;2023-07-09T10:09:02;152432.09;;;43.77;16.69
5877;BME280;2964;42.144;24.730;2023-07-09T10:11:44;151851.13;;;41.44;18.69
5877;BME280;2964;42.144;24.730;2023-07-09T10:14:24;150973.91;;;37.93;20.87
5877;BME280;2964;42.144;24.730;2023-07-09T10:16:58;150803.78;;;37.24;22.68
5877;BME280;2964;42.144;24.730;2023-07-09T10:19:33;150651.56;;;36.63;24.21
5877;BME280;2964;42.144;24.730;2023-07-09T10:22:05;150415.03;;;35.68;24.37
5877;BME280;2964;42.144;24.730;2023-07-09T10:24:42;150361.38;;;35.47;24.79
5877;BME280;2964;42.144;24.730;2023-07-09T10:27:13;150066.31;;;34.28;25.66
5877;BME280;2964;42.144;24.730;2023-07-09T10:29:57;149934.78;;;33.75;26.85
5877;BME280;2964;42.144;24.730;2023-07-09T10:32:36;149632.31;;;32.54;26.97
5877;BME280;2964;42.144;24.730;2023-07-09T10:35:13;149610.66;;;32.45;28.41
5877;BME280;2964;42.144;24.730;2023-07-09T10:37:53;149685.94;;;32.75;28.32
5877;BME280;2964;42.144;24.730;2023-07-09T10:40:33;149571.13;;;32.29;28.34
5877;BME280;2964;42.144;24.730;2023-07-09T10:43:04;149605.56;;;32.43;27.96
5877;BME280;2964;42.144;24.730;2023-07-09T10:45:38;149402.78;;;31.61;28.61
5877;BME280;2964;42.144;24.730;2023-07-09T10:48:09;149527.78;;;32.11;29.67
5877;BME280;2964;42.144;24.730;2023-07-09T10:50:41;149530.31;;;32.12;29.07
5877;BME280;2964;42.144;24.730;2023-07-09T10:53:13;149517.53;;;32.07;28.09
5877;BME280;2964;42.144;24.730;2023-07-09T10:55:47;149464.00;;;31.86;28.74
5877;BME280;2964;42.144;24.730;2023-07-09T10:58:31;149495.88;;;31.99;28.33
5877;BME280;2964;42.144;24.730;2023-07-09T11:01:01;149344.13;;;31.38;28.82
5877;BME280;2964;42.144;24.730;2023-07-09T11:03:36;149341.56;;;31.36;29.24
5877;BME280;2964;42.144;24.730;2023-07-09T11:06:09;149323.72;;;31.29;29.40
5877;BME280;2964;42.144;24.730;2023-07-09T11:08:39;149349.22;;;31.40;30.16
5877;BME280;2964;42.144;24.730;2023-07-09T11:11:13;149351.75;;;31.41;29.78
5877;BME280;2964;42.144;24.730;2023-07-09T11:13:43;149378.56;;;31.51;29.73
5877;BME280;2964;42.144;24.730;2023-07-09T11:16:14;149372.22;;;31.49;31.29
5877;BME280;2964;42.144;24.730;2023-07-09T11:18:54;149372.22;;;31.49;30.42
5877;BME280;2964;42.144;24.730;2023-07-09T11:21:22;149327.56;;;31.31;31.03
5877;BME280;2964;42.144;24.730;2023-07-09T11:23:51;149327.56;;;31.31;30.34
5877;BME280;2964;42.144;24.730;2023-07-09T11:26:23;149331.38;;;31.32;30.88
5877;BME280;2964;42.144;24.730;2023-07-09T11:28:51;149310.97;;;31.24;31.20
5877;BME280;2964;42.144;24.730;2023-07-09T11:31:24;149326.28;;;31.30;31.30
5877;BME280;2964;42.144;24.730;2023-07-09T11:34:02;149303.34;;;31.21;30.58
5877;BME280;2964;42.144;24.730;2023-07-09T11:36:34;149307.19;;;31.23;30.91
5877;BME280;2964;42.144;24.730;2023-07-09T11:39:20;149300.78;;;31.20;30.34
5877;BME280;2964;42.144;24.730;2023-07-09T11:41:48;149307.19;;;31.23;30.76
5877;BME280;2964;42.144;24.730;2023-07-09T11:44:17;149282.94;;;31.13;30.99
5877;BME280;2964;42.144;24.730;2023-07-09T11:47:04;149284.25;;;31.13;31.74
5877;BME280;2964;42.144;24.730;2023-07-09T11:49:41;149285.50;;;31.14;32.46
5877;BME280;2964;42.144;24.730;2023-07-09T11:52:10;149277.84;;;31.11;31.94
5877;BME280;2964;42.144;24.730;2023-07-09T11:54:37;149275.31;;;31.10;32.68
5877;BME280;2964;42.144;24.730;2023-07-09T11:57:10;149282.94;;;31.13;33.15
5877;BME280;2964;42.144;24.730;2023-07-09T11:59:38;149289.34;;;31.15;32.61
5877;BME280;2964;42.144;24.730;2023-07-09T12:02:15;149268.94;;;31.07;32.54
5877;BME280;2964;42.144;24.730;2023-07-09T12:04:43;149294.44;;;31.17;31.87
5877;BME280;2964;42.144;24.730;2023-07-09T12:07:13;149277.84;;;31.11;32.80
5877;BME280;2964;42.144;24.730;2023-07-09T12:09:46;149257.47;;;31.03;31.31
5877;BME280;2964;42.144;24.730;2023-07-09T12:12:18;149249.81;;;31.00;31.09
5877;BME280;2964;42.144;24.730;2023-07-09T12:14:45;149209.00;;;30.83;31.81
5877;BME280;2964;42.144;24.730;2023-07-09T12:17:13;149247.25;;;30.98;32.03
5877;BME280;2964;42.144;24.730;2023-07-09T12:19:39;149275.31;;;31.10;33.03
5877;BME280;2964;42.144;24.730;2023-07-09T12:22:10;149244.72;;;30.97;32.59
5877;BME280;2964;42.144;24.730;2023-07-09T12:24:43;149274.03;;;31.09;32.48
5877;BME280;2964;42.144;24.730;2023-07-09T12:27:19;149285.50;;;31.14;33.28
5877;BME280;2964;42.144;24.730;2023-07-09T12:29:46;149252.38;;;31.01;33.23
5877;BME280;2964;42.144;24.730;2023-07-09T12:32:16;149263.84;;;31.05;32.44
5877;BME280;2964;42.144;24.730;2023-07-09T12:34:47;149272.75;;;31.09;33.36
5877;BME280;2964;42.144;24.730;2023-07-09T12:37:15;149274.03;;;31.09;33.36
5877;BME280;2964;42.144;24.730;2023-07-09T12:39:42;149290.59;;;31.16;34.21
5877;BME280;2964;42.144;24.730;2023-07-09T12:42:16;149277.84;;;31.11;34.46
5877;BME280;2964;42.144;24.730;2023-07-09T12:44:43;149318.63;;;31.27;35.07
5877;BME280;2964;42.144;24.730;2023-07-09T12:47:14;149333.91;;;31.33;33.89
5877;BME280;2964;42.144;24.730;2023-07-09T12:49:43;149324.97;;;31.30;33.43
5877;BME280;2964;42.144;24.730;2023-07-09T12:52:14;149272.75;;;31.09;32.89
5877;BME280;2964;42.144;24.730;2023-07-09T12:54:51;149326.28;;;31.30;33.93
5877;BME280;2964;42.144;24.730;2023-07-09T12:57:19;149295.69;;;31.18;34.66
5877;BME280;2964;42.144;24.730;2023-07-09T12:59:46;149305.88;;;31.22;33.61
5877;BME280;2964;42.144;24.730;2023-07-09T13:02:17;149355.59;;;31.42;33.22
5877;BME280;2964;42.144;24.730;2023-07-09T13:04:45;149303.34;;;31.21;33.32
5877;BME280;2964;42.144;24.730;2023-07-09T13:07:26;149358.16;;;31.43;34.68
5877;BME280;2964;42.144;24.730;2023-07-09T13:09:54;149356.84;;;31.43;35.26